Time;durP1;ratioP1;P1;durP2;ratioP2;P2;SDS_P1;SDS_P2;PMS_P1;PMS_P2;Temp;Humidity;BMP_temperature;BMP_pressure;BME280_temperature;BME280_humidity;BME280_pressure;Samples;Min_cycle;Max_cycle;Signal;HPM_P1;HPM_P2
2023/10/25 00:00:27;;;;;;;5.40;4.50;;;17.40;69.00;;;;;;5063404;28;20453;-49
2023/10/25 00:02:53;;;;;;;4.30;4.00;;;17.40;68.90;;;;;;5051017;28;20442;-50
2023/10/25 00:05:19;;;;;;;4.57;4.20;;;17.40;69.00;;;;;;5061794;28;20188;-48
2023/10/25 00:07:44;;;;;;;4.20;3.80;;;17.40;68.80;;;;;;5055500;28;21172;-49
2023/10/25 00:10:10;;;;;;;4.63;4.10;;;17.40;68.80;;;;;;5054055;28;20193;-48
2023/10/25 00:12:36;;;;;;;4.63;4.23;;;17.30;69.10;;;;;;5057141;28;20219;-50
2023/10/25 00:15:02;;;;;;;4.40;4.00;;;17.20;68.90;;;;;;5053559;28;20192;-47
2023/10/25 00:17:28;;;;;;;5.90;4.83;;;17.20;69.00;;;;;;5057229;28;20515;-55
2023/10/25 00:19:54;;;;;;;4.20;3.40;;;17.20;68.90;;;;;;5056821;28;20450;-52
2023/10/25 00:22:19;;;;;;;3.87;3.47;;;17.10;69.10;;;;;;5057883;28;20184;-50
2023/10/25 00:24:45;;;;;;;3.80;3.50;;;16.90;69.80;;;;;;5053998;28;21011;-48
2023/10/25 00:27:10;;;;;;;4.83;3.90;;;16.80;70.40;;;;;;5058584;28;20590;-49
2023/10/25 00:29:36;;;;;;;4.03;3.73;;;16.80;71.10;;;;;;5067215;28;20192;-51
2023/10/25 00:32:01;;;;;;;4.20;3.80;;;16.70;71.70;;;;;;5059871;28;20172;-50
2023/10/25 00:34:27;;;;;;;3.87;3.57;;;16.70;71.40;;;;;;5059675;28;20180;-51
2023/10/25 00:36:52;;;;;;;4.03;3.73;;;16.70;71.20;;;;;;5066425;28;20198;-50
2023/10/25 00:39:18;;;;;;;4.60;3.73;;;16.70;71.50;;;;;;5063590;28;20212;-52
2023/10/25 00:41:43;;;;;;;4.10;3.70;;;16.70;71.60;;;;;;5065858;28;20194;-53
2023/10/25 00:44:09;;;;;;;3.70;3.40;;;16.70;71.30;;;;;;5067605;28;20271;-49
2023/10/25 00:46:36;;;;;;;4.23;3.93;;;16.80;70.80;;;;;;5063991;28;20195;-51
2023/10/25 00:49:02;;;;;;;3.97;3.67;;;16.70;70.80;;;;;;5063939;28;21885;-47
2023/10/25 00:51:30;;;;;;;7.13;4.60;;;16.70;70.70;;;;;;5061757;28;20430;-53
2023/10/25 00:53:59;;;;;;;4.43;4.03;;;16.60;70.80;;;;;;5064982;28;20547;-50
2023/10/25 00:56:26;;;;;;;6.20;4.40;;;16.50;71.20;;;;;;5065677;28;20517;-49
2023/10/25 00:58:53;;;;;;;3.90;3.60;;;16.60;70.90;;;;;;5066122;28;20767;-51
2023/10/25 01:01:22;;;;;;;4.80;4.10;;;16.60;70.50;;;;;;5064888;28;21042;-49
2023/10/25 01:03:47;;;;;;;4.40;3.50;;;16.70;70.00;;;;;;5068503;28;20525;-47
2023/10/25 01:06:13;;;;;;;4.30;3.83;;;16.60;70.20;;;;;;5058815;28;20529;-53
2023/10/25 01:08:40;;;;;;;4.40;3.63;;;16.70;70.80;;;;;;5054907;28;20209;-49
2023/10/25 01:11:05;;;;;;;4.70;4.27;;;16.50;70.10;;;;;;5055530;28;20189;-48
2023/10/25 01:13:31;;;;;;;4.57;4.20;;;16.50;70.50;;;;;;5055958;28;20456;-50
2023/10/25 01:15:57;;;;;;;3.80;3.50;;;16.50;70.60;;;;;;5056239;28;20192;-50
2023/10/25 01:18:23;;;;;;;4.20;3.90;;;16.50;70.40;;;;;;5049661;28;20242;-50
2023/10/25 01:20:49;;;;;;;4.00;3.70;;;16.50;70.20;;;;;;5054080;28;20941;-49
2023/10/25 01:23:14;;;;;;;3.87;3.57;;;16.60;70.10;;;;;;5064211;28;20183;-47
2023/10/25 01:25:42;;;;;;;3.43;3.13;;;16.50;69.80;;;;;;5060295;28;20184;-52
2023/10/25 01:28:08;;;;;;;4.00;3.60;;;16.50;70.00;;;;;;5055546;28;20256;-49
2023/10/25 01:30:34;;;;;;;4.87;4.47;;;16.50;70.10;;;;;;5060414;28;20432;-51
2023/10/25 01:33:00;;;;;;;4.70;4.30;;;16.50;69.70;;;;;;5058721;28;20437;-49
2023/10/25 01:35:26;;;;;;;4.57;4.17;;;16.50;69.50;;;;;;5063026;28;20188;-54
2023/10/25 01:37:52;;;;;;;4.93;4.53;;;16.10;70.70;;;;;;5057868;28;20326;-51
2023/10/25 01:40:17;;;;;;;5.00;4.60;;;16.00;71.60;;;;;;5053978;28;21246;-51
2023/10/25 01:42:44;;;;;;;5.63;5.07;;;16.10;71.60;;;;;;5054670;28;20513;-53
2023/10/25 01:45:11;;;;;;;5.30;4.80;;;16.10;71.20;;;;;;5061586;28;20582;-46
2023/10/25 01:47:38;;;;;;;4.93;4.53;;;16.00;71.30;;;;;;5065424;28;20917;-53
2023/10/25 01:50:04;;;;;;;5.77;4.80;;;16.00;71.40;;;;;;5057090;28;20490;-50
2023/10/25 01:52:30;;;;;;;5.17;4.63;;;15.90;72.50;;;;;;5060799;28;20433;-52
2023/10/25 01:54:56;;;;;;;4.50;4.13;;;15.80;71.60;;;;;;5058049;28;20447;-54
2023/10/25 01:57:21;;;;;;;4.87;4.47;;;15.80;72.10;;;;;;5053601;28;20915;-51
2023/10/25 01:59:47;;;;;;;5.90;5.27;;;15.70;72.40;;;;;;5052933;28;20216;-52
2023/10/25 02:02:12;;;;;;;4.57;4.17;;;15.90;72.20;;;;;;5053473;28;20570;-52
2023/10/25 02:04:38;;;;;;;5.57;5.07;;;16.00;71.60;;;;;;5053119;28;20192;-49
2023/10/25 02:07:04;;;;;;;4.80;4.23;;;16.10;71.10;;;;;;5053163;28;20188;-51
2023/10/25 02:09:30;;;;;;;4.50;4.20;;;16.20;70.60;;;;;;5055773;28;20259;-49
2023/10/25 02:11:56;;;;;;;4.40;4.10;;;16.30;70.20;;;;;;5056769;28;20933;-51
2023/10/25 02:14:22;;;;;;;5.30;4.83;;;16.30;69.50;;;;;;5056437;28;20536;-52
2023/10/25 02:16:48;;;;;;;4.10;3.80;;;16.30;69.10;;;;;;5054990;28;20310;-52
2023/10/25 02:19:15;;;;;;;5.20;4.80;;;16.30;69.00;;;;;;5053300;28;20474;-51
2023/10/25 02:21:40;;;;;;;5.20;4.70;;;16.30;68.80;;;;;;5056223;28;20269;-49
2023/10/25 02:24:06;;;;;;;5.50;5.00;;;16.20;68.60;;;;;;5055477;28;20450;-50
2023/10/25 02:26:32;;;;;;;5.13;4.67;;;16.20;68.80;;;;;;5056829;28;20180;-49
2023/10/25 02:28:59;;;;;;;4.80;4.40;;;16.20;69.00;;;;;;5062022;28;20464;-52
2023/10/25 02:31:24;;;;;;;4.80;4.40;;;16.20;69.10;;;;;;5060324;28;20441;-48
2023/10/25 02:33:50;;;;;;;8.20;5.83;;;16.20;69.10;;;;;;5056491;28;20454;-51
2023/10/25 02:36:16;;;;;;;5.03;4.57;;;16.10;69.00;;;;;;5061360;28;20184;-55
2023/10/25 02:38:41;;;;;;;5.43;5.03;;;16.10;68.90;;;;;;5067051;28;20299;-53
2023/10/25 02:41:07;;;;;;;5.17;4.67;;;16.10;68.80;;;;;;5064187;28;20446;-51
2023/10/25 02:43:34;;;;;;;5.33;4.93;;;16.00;69.00;;;;;;5069710;28;20209;-50
2023/10/25 02:46:05;;;;;;;4.80;4.40;;;16.00;69.20;;;;;;5068031;28;20268;-50
2023/10/25 02:48:31;;;;;;;4.90;4.40;;;16.00;69.20;;;;;;5066624;28;20458;-50
2023/10/25 02:50:59;;;;;;;5.40;4.50;;;15.90;69.40;;;;;;5067978;28;20450;-54
2023/10/25 02:53:25;;;;;;;6.70;4.90;;;15.70;70.20;;;;;;5066863;28;20889;-49
2023/10/25 02:55:50;;;;;;;4.77;4.40;;;15.60;71.60;;;;;;5068257;28;20447;-52
2023/10/25 02:58:16;;;;;;;4.50;4.20;;;15.40;71.90;;;;;;5070675;28;20223;-50
2023/10/25 03:00:42;;;;;;;4.53;4.20;;;15.40;72.30;;;;;;5067761;28;20267;-50
2023/10/25 03:03:07;;;;;;;4.40;3.90;;;15.30;72.60;;;;;;5065855;28;20634;-53
2023/10/25 03:05:33;;;;;;;4.60;4.20;;;15.10;73.70;;;;;;5067481;28;20200;-48
2023/10/25 03:07:59;;;;;;;5.07;4.67;;;15.20;74.00;;;;;;5062894;28;20739;-48
2023/10/25 03:10:25;;;;;;;5.77;4.90;;;15.30;73.70;;;;;;5058537;28;20188;-50
2023/10/25 03:12:50;;;;;;;4.20;3.90;;;15.30;73.00;;;;;;5056515;28;20199;-48
2023/10/25 03:15:16;;;;;;;4.07;3.77;;;15.30;72.70;;;;;;5056683;28;20184;-48
2023/10/25 03:17:41;;;;;;;4.67;4.10;;;15.30;72.50;;;;;;5059475;28;20224;-51
2023/10/25 03:20:07;;;;;;;5.43;4.20;;;15.20;72.00;;;;;;5057628;28;20215;-53
2023/10/25 03:22:32;;;;;;;4.53;4.13;;;15.30;72.20;;;;;;5061913;28;20195;-50
2023/10/25 03:24:58;;;;;;;6.50;3.90;;;15.30;71.60;;;;;;5057931;28;20192;-48
2023/10/25 03:27:24;;;;;;;4.83;4.47;;;15.10;71.70;;;;;;5065060;28;20643;-49
2023/10/25 03:29:49;;;;;;;4.73;4.33;;;15.20;71.70;;;;;;5067292;28;20231;-49
2023/10/25 03:32:15;;;;;;;5.87;5.30;;;15.10;71.60;;;;;;5060303;28;20587;-49
2023/10/25 03:34:41;;;;;;;4.10;3.70;;;15.10;71.40;;;;;;5064733;28;20634;-50
2023/10/25 03:37:07;;;;;;;6.43;3.77;;;14.80;71.90;;;;;;5055802;28;20198;-48
2023/10/25 03:39:32;;;;;;;15.07;4.60;;;14.80;72.50;;;;;;5060211;28;20462;-51
2023/10/25 03:41:58;;;;;;;5.40;4.03;;;14.20;74.60;;;;;;5050892;28;20275;-51
2023/10/25 03:44:23;;;;;;;5.97;4.63;;;14.00;76.50;;;;;;5065239;28;20184;-48
2023/10/25 03:46:49;;;;;;;5.13;4.73;;;14.10;76.80;;;;;;5065503;28;20241;-49
2023/10/25 03:49:14;;;;;;;17.93;5.50;;;14.20;76.30;;;;;;5066264;28;20199;-48
2023/10/25 03:51:40;;;;;;;6.80;4.43;;;14.10;75.70;;;;;;5053647;28;20300;-49
2023/10/25 03:54:06;;;;;;;33.13;5.50;;;14.00;76.30;;;;;;5064835;28;20226;-48
2023/10/25 03:56:31;;;;;;;18.67;4.40;;;13.80;77.40;;;;;;5056205;28;20181;-50
2023/10/25 03:58:57;;;;;;;14.67;4.53;;;13.70;79.00;;;;;;5061288;28;20241;-50
2023/10/25 04:01:23;;;;;;;7.60;4.60;;;13.70;79.20;;;;;;5059786;28;20191;-50
2023/10/25 04:03:48;;;;;;;12.63;4.70;;;13.70;79.30;;;;;;5055560;28;20233;-49
2023/10/25 04:06:14;;;;;;;14.47;5.30;;;13.80;78.80;;;;;;5060169;28;20196;-50
2023/10/25 04:08:39;;;;;;;8.50;5.10;;;13.90;77.10;;;;;;5059156;28;20561;-51
2023/10/25 04:11:05;;;;;;;7.77;4.90;;;13.90;77.60;;;;;;5064732;28;20659;-51
2023/10/25 04:13:32;;;;;;;7.87;5.50;;;13.80;76.70;;;;;;5065193;28;20648;-50
2023/10/25 04:15:59;;;;;;;16.87;5.97;;;13.60;78.60;;;;;;5066882;28;20184;-48
2023/10/25 04:18:27;;;;;;;102.60;10.20;;;13.70;78.50;;;;;;5064657;28;20473;-50
2023/10/25 04:20:54;;;;;;;53.33;9.00;;;13.50;78.70;;;;;;5060668;28;20446;-50
2023/10/25 04:23:20;;;;;;;18.73;5.83;;;13.30;80.80;;;;;;5060368;28;20848;-49
2023/10/25 04:25:45;;;;;;;5.93;5.33;;;13.30;80.90;;;;;;5056410;28;20435;-49
2023/10/25 04:28:12;;;;;;;7.77;5.80;;;13.20;82.60;;;;;;5047518;28;20219;-49
2023/10/25 04:30:38;;;;;;;7.20;6.50;;;13.30;81.00;;;;;;5052229;28;20302;-50
2023/10/25 04:33:03;;;;;;;6.10;5.60;;;13.30;81.60;;;;;;5065115;28;20500;-47
2023/10/25 04:35:29;;;;;;;9.23;5.37;;;13.40;80.80;;;;;;5058666;28;20184;-49
2023/10/25 04:37:55;;;;;;;5.90;5.27;;;13.40;80.10;;;;;;5065887;28;20220;-51
2023/10/25 04:40:21;;;;;;;8.33;5.07;;;13.50;79.90;;;;;;5054171;28;20478;-49
2023/10/25 04:42:50;;;;;;;7.60;5.23;;;13.50;78.90;;;;;;5056734;28;20442;-52
2023/10/25 04:45:16;;;;;;;5.40;4.90;;;13.50;79.40;;;;;;5056898;28;20426;-49
2023/10/25 04:47:41;;;;;;;5.40;4.93;;;13.40;79.70;;;;;;5056506;28;20449;-47
2023/10/25 04:50:07;;;;;;;5.43;5.00;;;13.60;79.10;;;;;;5048093;28;20454;-50
2023/10/25 04:52:33;;;;;;;5.90;5.07;;;13.60;78.30;;;;;;5059031;28;20211;-52
2023/10/25 04:54:58;;;;;;;5.73;5.33;;;13.60;78.60;;;;;;5062534;28;20450;-48
2023/10/25 04:57:24;;;;;;;5.27;4.87;;;13.60;77.10;;;;;;5057818;28;20216;-49
2023/10/25 04:59:50;;;;;;;4.83;4.43;;;13.50;77.30;;;;;;5056615;28;20221;-48
2023/10/25 05:02:16;;;;;;;5.07;4.57;;;13.70;76.70;;;;;;5057322;28;20176;-51
2023/10/25 05:04:41;;;;;;;6.20;5.70;;;13.90;75.10;;;;;;5055036;28;20442;-53
2023/10/25 05:07:08;;;;;;;5.63;5.07;;;13.90;74.80;;;;;;5058298;28;20247;-54
2023/10/25 05:09:34;;;;;;;6.37;5.03;;;14.00;74.00;;;;;;5056952;28;20284;-51
2023/10/25 05:12:04;;;;;;;6.43;5.10;;;13.80;74.50;;;;;;5054363;28;20435;-52
2023/10/25 05:14:30;;;;;;;4.90;4.50;;;13.60;75.50;;;;;;5056569;28;20503;-49
2023/10/25 05:16:56;;;;;;;7.43;5.27;;;13.50;75.70;;;;;;5053790;28;20521;-52
2023/10/25 05:19:22;;;;;;;9.70;5.07;;;13.50;77.80;;;;;;5055057;28;20480;-50
2023/10/25 05:21:50;;;;;;;5.13;4.63;;;13.70;79.10;;;;;;5052848;28;20184;-48
2023/10/25 05:24:17;;;;;;;4.67;4.27;;;14.00;78.60;;;;;;5061061;28;20195;-50
2023/10/25 05:26:44;;;;;;;6.10;4.00;;;14.30;77.30;;;;;;5054738;28;20446;-49
2023/10/25 05:29:10;;;;;;;5.87;3.80;;;14.50;75.50;;;;;;5062710;28;20885;-52
2023/10/25 05:31:40;;;;;;;4.67;4.27;;;14.50;74.30;;;;;;5052581;28;20438;-55
2023/10/25 05:34:07;;;;;;;3.73;3.43;;;14.70;74.00;;;;;;5061540;28;20868;-51
2023/10/25 05:36:33;;;;;;;3.80;3.50;;;14.60;72.00;;;;;;5057525;28;20437;-50
2023/10/25 05:39:00;;;;;;;3.57;3.27;;;14.60;72.30;;;;;;5060280;28;21044;-50
2023/10/25 05:41:29;;;;;;;4.23;3.83;;;14.70;72.80;;;;;;5063864;28;20442;-55
2023/10/25 05:44:03;;;;;;;3.90;3.60;;;14.70;72.30;;;;;;5063841;28;20452;-53
2023/10/25 05:46:29;;;;;;;3.93;3.63;;;14.60;72.80;;;;;;5067218;28;20430;-50
2023/10/25 05:48:54;;;;;;;5.10;4.60;;;14.40;72.30;;;;;;5068948;28;20615;-53
2023/10/25 05:51:20;;;;;;;3.50;3.20;;;14.40;72.90;;;;;;5065653;28;20206;-50
2023/10/25 05:53:47;;;;;;;5.03;4.17;;;14.50;72.30;;;;;;5067639;28;20204;-55
2023/10/25 05:56:13;;;;;;;5.13;4.07;;;14.60;72.00;;;;;;5063310;28;20180;-56
2023/10/25 05:58:39;;;;;;;4.33;4.00;;;14.70;71.50;;;;;;5066394;28;20527;-52
2023/10/25 06:01:08;;;;;;;4.33;3.80;;;14.70;71.20;;;;;;5064077;28;20434;-51
2023/10/25 06:03:34;;;;;;;4.40;4.00;;;14.80;70.10;;;;;;5066384;28;20573;-55
2023/10/25 06:06:01;;;;;;;29.97;6.70;;;14.80;69.80;;;;;;5067907;28;20487;-54
2023/10/25 06:08:30;;;;;;;13.17;4.80;;;14.80;69.20;;;;;;5067860;28;20454;-54
2023/10/25 06:10:55;;;;;;;11.57;3.80;;;14.80;69.00;;;;;;5066086;28;20953;-52
2023/10/25 06:13:22;;;;;;;14.47;4.73;;;14.70;68.80;;;;;;5064996;28;20441;-51
2023/10/25 06:15:47;;;;;;;11.70;4.43;;;14.70;69.30;;;;;;5065684;28;20195;-53
2023/10/25 06:18:13;;;;;;;7.53;3.67;;;14.70;69.10;;;;;;5067703;28;20474;-50
2023/10/25 06:20:39;;;;;;;3.73;3.43;;;14.70;70.30;;;;;;5067689;28;20214;-54
2023/10/25 06:23:04;;;;;;;7.60;3.37;;;14.60;69.60;;;;;;5063654;28;20426;-53
2023/10/25 06:25:30;;;;;;;3.10;2.80;;;14.60;70.00;;;;;;5065702;28;20191;-53
2023/10/25 06:27:57;;;;;;;3.37;3.07;;;14.60;70.80;;;;;;5066554;28;20193;-52
2023/10/25 06:30:24;;;;;;;2.50;2.33;;;14.30;70.80;;;;;;5056090;28;20180;-49
2023/10/25 06:32:49;;;;;;;3.17;2.90;;;14.30;71.60;;;;;;5061170;28;20441;-51
2023/10/25 06:35:15;;;;;;;2.70;2.50;;;14.20;72.60;;;;;;5062581;28;20430;-49
2023/10/25 06:37:41;;;;;;;3.37;2.97;;;14.30;72.50;;;;;;5068012;28;20226;-49
2023/10/25 06:40:07;;;;;;;3.50;3.00;;;14.40;72.80;;;;;;5066562;28;20200;-49
2023/10/25 06:42:33;;;;;;;3.97;3.30;;;14.40;72.40;;;;;;5068102;28;20273;-49
2023/10/25 06:44:59;;;;;;;3.60;3.30;;;14.70;72.00;;;;;;5068659;28;20434;-48
2023/10/25 06:47:26;;;;;;;3.00;2.80;;;14.70;70.60;;;;;;5066495;28;20434;-51
2023/10/25 06:49:52;;;;;;;3.30;3.10;;;14.60;70.20;;;;;;5067704;28;20239;-49
2023/10/25 06:52:18;;;;;;;3.23;3.00;;;14.60;70.70;;;;;;5068442;28;20453;-49
2023/10/25 06:54:43;;;;;;;2.60;2.40;;;14.30;71.00;;;;;;5068453;28;20434;-50
2023/10/25 06:57:09;;;;;;;3.60;3.03;;;14.10;72.40;;;;;;5068020;28;20284;-50
2023/10/25 06:59:35;;;;;;;3.20;3.00;;;14.00;72.90;;;;;;5066976;28;20840;-49
2023/10/25 07:02:41;;;;;;;3.23;3.03;;;14.00;73.80;;;;;;5068510;28;20494;-54
2023/10/25 07:05:13;;;;;;;3.37;3.17;;;14.10;74.60;;;;;;5067449;28;20208;-48
2023/10/25 07:07:43;;;;;;;3.23;3.03;;;14.30;73.40;;;;;;5067963;28;20414;-50
2023/10/25 07:10:09;;;;;;;3.30;3.10;;;14.50;72.90;;;;;;5067558;28;20521;-49
2023/10/25 07:12:35;;;;;;;3.60;3.30;;;14.50;73.50;;;;;;5066598;28;20486;-52
2023/10/25 07:15:01;;;;;;;3.87;3.57;;;14.70;73.20;;;;;;5065974;28;20873;-49
2023/10/25 07:17:29;;;;;;;2.93;2.73;;;14.90;73.70;;;;;;5067837;28;20212;-49
2023/10/25 07:19:55;;;;;;;2.93;2.73;;;15.10;71.80;;;;;;5067367;28;20214;-49
2023/10/25 07:22:21;;;;;;;3.57;3.27;;;15.30;71.80;;;;;;5068280;28;20881;-50
2023/10/25 07:24:46;;;;;;;5.00;3.57;;;15.50;71.60;;;;;;5071993;28;20187;-47
2023/10/25 07:27:12;;;;;;;3.30;2.50;;;15.20;70.80;;;;;;5071514;28;20210;-49
2023/10/25 07:29:39;;;;;;;3.40;3.13;;;15.30;72.30;;;;;;5070195;28;20208;-48
2023/10/25 07:32:05;;;;;;;8.43;2.90;;;15.40;72.80;;;;;;5071679;28;20196;-49
2023/10/25 07:34:30;;;;;;;3.47;3.17;;;15.40;72.80;;;;;;5071864;28;20414;-48
2023/10/25 07:36:56;;;;;;;3.90;3.60;;;15.40;73.20;;;;;;5071286;28;20856;-50
2023/10/25 07:39:22;;;;;;;3.53;3.23;;;15.50;73.40;;;;;;5070899;28;20608;-52
2023/10/25 07:41:47;;;;;;;3.93;3.53;;;15.50;73.10;;;;;;5070685;28;20236;-51
2023/10/25 07:44:13;;;;;;;3.80;3.17;;;15.40;73.30;;;;;;5071390;28;20196;-49
2023/10/25 07:46:38;;;;;;;5.57;3.47;;;15.60;73.00;;;;;;5060202;28;20195;-48
2023/10/25 07:49:04;;;;;;;13.80;3.87;;;15.70;72.50;;;;;;5060761;28;20199;-49
2023/10/25 07:51:30;;;;;;;4.33;3.90;;;15.60;73.00;;;;;;5068883;28;20191;-51
2023/10/25 07:53:55;;;;;;;3.77;3.47;;;15.30;74.00;;;;;;5067308;28;20192;-53
2023/10/25 07:56:21;;;;;;;7.20;3.50;;;15.30;75.50;;;;;;5066268;28;20210;-51
2023/10/25 07:58:46;;;;;;;3.50;3.20;;;15.50;75.70;;;;;;5064743;28;20223;-50
2023/10/25 08:01:12;;;;;;;3.23;2.87;;;15.60;75.00;;;;;;5066430;28;20183;-51
2023/10/25 08:03:38;;;;;;;4.83;2.43;;;15.90;73.90;;;;;;5066332;28;20194;-50
2023/10/25 08:06:05;;;;;;;3.00;2.70;;;16.00;72.80;;;;;;5067759;28;20442;-53
2023/10/25 08:08:31;;;;;;;3.73;2.60;;;16.10;72.10;;;;;;5067486;28;20705;-50
2023/10/25 08:11:04;;;;;;;3.63;2.83;;;16.20;71.10;;;;;;5066993;28;20470;-52
2023/10/25 08:13:32;;;;;;;3.00;2.80;;;16.30;70.90;;;;;;5063296;28;20195;-51
2023/10/25 08:15:58;;;;;;;2.47;2.27;;;16.30;70.30;;;;;;5065760;28;20457;-54
2023/10/25 08:18:27;;;;;;;2.53;2.33;;;16.30;70.00;;;;;;5068608;28;20470;-55
2023/10/25 08:20:53;;;;;;;3.17;2.93;;;16.40;69.40;;;;;;5066295;28;20434;-54
2023/10/25 08:23:18;;;;;;;3.50;2.80;;;16.40;69.80;;;;;;5066241;28;20464;-52
2023/10/25 08:25:44;;;;;;;2.80;2.60;;;16.30;70.10;;;;;;5067332;28;20260;-49
2023/10/25 08:28:09;;;;;;;2.53;2.33;;;16.00;71.30;;;;;;5061094;28;20203;-50
2023/10/25 08:30:35;;;;;;;2.60;2.40;;;15.80;72.00;;;;;;5067386;28;20176;-51
2023/10/25 08:33:00;;;;;;;2.70;2.50;;;16.00;72.20;;;;;;5069341;28;20187;-55
2023/10/25 08:35:26;;;;;;;4.10;2.43;;;16.30;71.60;;;;;;5065929;28;20634;-54
2023/10/25 08:37:52;;;;;;;2.90;2.63;;;16.30;71.70;;;;;;5063739;28;20273;-50
2023/10/25 08:40:17;;;;;;;2.20;2.10;;;16.30;71.30;;;;;;5065508;28;20180;-52
2023/10/25 08:42:43;;;;;;;3.20;2.20;;;16.20;71.70;;;;;;5060259;28;20180;-50
2023/10/25 08:45:09;;;;;;;2.47;2.27;;;16.10;71.40;;;;;;5057733;28;20679;-50
2023/10/25 08:47:35;;;;;;;1.93;1.83;;;16.10;71.60;;;;;;5056431;28;20193;-53
2023/10/25 08:50:04;;;;;;;2.73;2.53;;;16.20;72.20;;;;;;5067041;28;20464;-51
2023/10/25 08:52:29;;;;;;;2.30;2.20;;;16.40;71.80;;;;;;5063270;28;20708;-51
2023/10/25 08:54:55;;;;;;;2.07;1.93;;;16.70;70.90;;;;;;5064101;28;20446;-55
2023/10/25 08:57:21;;;;;;;2.37;2.20;;;16.70;70.90;;;;;;5064992;28;20179;-53
2023/10/25 08:59:47;;;;;;;4.00;2.00;;;16.80;71.50;;;;;;5061011;28;20212;-49
2023/10/25 09:02:14;;;;;;;3.80;2.00;;;16.90;70.90;;;;;;5064508;28;20511;-52
2023/10/25 09:05:06;;;;;;;3.50;2.17;;;17.00;70.00;;;;;;5056660;28;20949;-49
2023/10/25 09:07:36;;;;;;;4.13;2.20;;;17.20;69.60;;;;;;5065972;28;20457;-49
2023/10/25 09:10:03;;;;;;;2.60;2.00;;;17.10;68.90;;;;;;5066493;28;20482;-49
2023/10/25 09:12:30;;;;;;;2.43;2.23;;;17.00;69.30;;;;;;5069610;28;20454;-50
2023/10/25 09:14:56;;;;;;;2.53;2.40;;;17.00;69.40;;;;;;5065852;28;20433;-53
2023/10/25 09:17:21;;;;;;;2.33;2.13;;;17.00;69.40;;;;;;5064995;28;20434;-52
2023/10/25 09:19:49;;;;;;;2.60;2.37;;;16.90;69.80;;;;;;5058645;28;20494;-50
2023/10/25 09:22:21;;;;;;;1.60;1.50;;;16.70;70.60;;;;;;5063353;28;20200;-51
2023/10/25 09:24:48;;;;;;;2.37;1.97;;;16.90;70.80;;;;;;5061022;28;20470;-52
2023/10/25 09:27:14;;;;;;;2.10;1.90;;;17.00;70.50;;;;;;5063419;28;20831;-50
2023/10/25 09:29:39;;;;;;;2.10;1.90;;;17.10;70.20;;;;;;5062342;28;20515;-49
2023/10/25 09:32:06;;;;;;;2.50;1.90;;;17.10;70.00;;;;;;5061694;28;20270;-54
2023/10/25 09:34:34;;;;;;;2.20;2.00;;;17.20;70.00;;;;;;5059824;28;20263;-51
2023/10/25 09:37:00;;;;;;;3.37;1.93;;;17.40;69.40;;;;;;5060249;28;20446;-54
2023/10/25 09:39:26;;;;;;;2.20;2.00;;;17.50;68.60;;;;;;5061955;28;20478;-49
2023/10/25 09:41:52;;;;;;;2.57;2.27;;;17.50;68.90;;;;;;5060108;28;20449;-52
2023/10/25 09:44:21;;;;;;;2.63;2.33;;;17.60;68.80;;;;;;5061879;28;20203;-48
2023/10/25 09:46:47;;;;;;;2.50;2.30;;;17.70;68.60;;;;;;5063345;28;20556;-52
2023/10/25 09:49:16;;;;;;;2.10;1.93;;;17.60;69.00;;;;;;5063619;28;20997;-54
2023/10/25 09:51:41;;;;;;;2.10;2.00;;;17.60;68.60;;;;;;5066024;28;20822;-51
2023/10/25 09:54:11;;;;;;;2.17;1.97;;;17.30;69.90;;;;;;5064729;28;20461;-50
2023/10/25 09:56:37;;;;;;;2.50;2.30;;;17.30;70.80;;;;;;5064113;28;20349;-48
2023/10/25 09:59:07;;;;;;;2.20;2.00;;;17.40;70.70;;;;;;5062018;28;20560;-48
2023/10/25 10:01:33;;;;;;;1.83;1.73;;;17.40;70.70;;;;;;5062855;28;20461;-48
2023/10/25 10:04:10;;;;;;;5.73;1.80;;;17.50;70.40;;;;;;5068572;28;20421;-48
2023/10/25 10:06:38;;;;;;;2.57;2.37;;;17.40;70.50;;;;;;5068199;28;20445;-53
2023/10/25 10:09:30;;;;;;;2.10;2.00;;;17.20;71.10;;;;;;5060257;28;20458;-52
2023/10/25 10:12:04;;;;;;;5.60;2.60;;;17.20;71.60;;;;;;5060883;28;20442;-54
2023/10/25 10:14:37;;;;;;;2.20;2.00;;;17.00;72.10;;;;;;5066053;28;20525;-51
2023/10/25 10:17:09;;;;;;;2.37;2.20;;;17.00;73.30;;;;;;5065457;28;20420;-47
2023/10/25 10:19:39;;;;;;;1.83;1.73;;;17.10;73.40;;;;;;5066055;28;20466;-52
2023/10/25 10:22:07;;;;;;;2.80;2.40;;;16.90;72.60;;;;;;5067607;28;20446;-51
2023/10/25 10:24:53;;;;;;;3.00;2.60;;;16.80;73.40;;;;;;5067592;28;20442;-48
2023/10/25 10:27:51;;;;;;;5.07;2.27;;;16.90;74.40;;;;;;5060649;28;20480;-52
2023/10/25 10:30:39;;;;;;;2.23;2.03;;;17.00;74.30;;;;;;5057127;28;20458;-50
2023/10/25 10:33:11;;;;;;;2.10;1.90;;;17.20;73.70;;;;;;5063577;28;20941;-50
2023/10/25 10:35:47;;;;;;;2.80;1.90;;;17.20;72.50;;;;;;5063380;28;20438;-51
2023/10/25 10:38:13;;;;;;;2.30;2.10;;;17.00;73.50;;;;;;5058897;28;20477;-49
2023/10/25 10:40:39;;;;;;;2.50;2.30;;;17.00;73.50;;;;;;5063755;28;20449;-49
2023/10/25 10:43:06;;;;;;;2.83;2.43;;;17.10;74.60;;;;;;5065685;28;20434;-54
2023/10/25 10:45:32;;;;;;;3.80;2.80;;;17.40;73.20;;;;;;5066534;28;20667;-51
2023/10/25 10:48:32;;;;;;;3.50;3.20;;;17.30;73.30;;;;;;5067153;28;20445;-49
2023/10/25 10:50:58;;;;;;;3.70;2.87;;;16.90;73.90;;;;;;5066294;28;20929;-51
2023/10/25 10:53:24;;;;;;;3.50;3.20;;;17.00;74.90;;;;;;5066748;28;20444;-49
2023/10/25 10:55:50;;;;;;;6.03;2.60;;;17.00;74.20;;;;;;5063983;28;20446;-51
2023/10/25 10:58:17;;;;;;;3.87;2.50;;;16.80;75.20;;;;;;5067469;28;20306;-47
2023/10/25 11:00:44;;;;;;;5.50;3.27;;;16.80;75.90;;;;;;5065903;28;20740;-51
2023/10/25 11:03:10;;;;;;;5.20;2.83;;;17.00;75.90;;;;;;5070057;28;20461;-51
2023/10/25 11:05:39;;;;;;;2.23;2.13;;;16.80;75.90;;;;;;5071101;28;20461;-52
2023/10/25 11:08:10;;;;;;;3.00;2.60;;;17.00;75.00;;;;;;5068886;28;20250;-47
2023/10/25 11:10:36;;;;;;;7.87;3.60;;;16.90;75.80;;;;;;5068619;28;20442;-50
2023/10/25 11:13:09;;;;;;;20.73;5.30;;;16.90;76.00;;;;;;5060706;28;20458;-48
2023/10/25 11:15:35;;;;;;;15.80;2.50;;;17.00;75.20;;;;;;5066923;28;20615;-55
2023/10/25 11:18:01;;;;;;;2.60;2.17;;;17.30;74.90;;;;;;5069256;28;20509;-50
2023/10/25 11:20:26;;;;;;;20.87;3.37;;;17.50;71.10;;;;;;5070048;28;20276;-52
2023/10/25 11:22:52;;;;;;;8.70;2.83;;;17.60;69.80;;;;;;5071493;28;20440;-53
2023/10/25 11:25:21;;;;;;;37.13;6.37;;;17.70;68.50;;;;;;5069034;28;20188;-49
2023/10/25 11:27:47;;;;;;;38.50;7.10;;;17.60;67.80;;;;;;5067662;28;20188;-51
2023/10/25 11:30:13;;;;;;;43.77;7.33;;;17.60;67.70;;;;;;5066124;28;20491;-50
2023/10/25 11:32:42;;;;;;;44.30;7.80;;;17.50;68.60;;;;;;5069907;28;20179;-51
2023/10/25 11:35:23;;;;;;;27.67;5.83;;;17.50;69.00;;;;;;5067243;28;20180;-50
2023/10/25 11:37:51;;;;;;;31.80;6.40;;;17.60;70.40;;;;;;5064369;28;21008;-52
2023/10/25 11:40:17;;;;;;;7.60;2.53;;;17.70;70.10;;;;;;5068909;28;20446;-53
2023/10/25 11:42:43;;;;;;;1.70;1.60;;;17.80;69.20;;;;;;5066441;28;20430;-50
2023/10/25 11:45:09;;;;;;;2.80;1.63;;;17.60;70.30;;;;;;5065036;28;20191;-52
2023/10/25 11:47:37;;;;;;;2.23;1.80;;;17.70;70.70;;;;;;5056761;28;20450;-54
2023/10/25 11:50:03;;;;;;;7.80;2.30;;;17.70;71.20;;;;;;5059215;28;21035;-51
2023/10/25 11:52:30;;;;;;;7.97;2.83;;;18.00;70.00;;;;;;5061820;28;20449;-54
2023/10/25 11:54:58;;;;;;;5.07;1.93;;;18.10;69.30;;;;;;5066512;28;20485;-51
2023/10/25 11:57:24;;;;;;;2.57;1.60;;;18.30;69.70;;;;;;5060260;28;20477;-52
2023/10/25 11:59:50;;;;;;;2.50;2.20;;;18.30;69.20;;;;;;5067250;28;20450;-52
2023/10/25 12:02:18;;;;;;;2.87;1.97;;;18.50;68.70;;;;;;5067017;28;20422;-50
2023/10/25 12:04:44;;;;;;;1.70;1.60;;;18.50;68.80;;;;;;5068559;28;20433;-48
2023/10/25 12:07:10;;;;;;;1.77;1.50;;;18.80;68.40;;;;;;5063358;28;20426;-51
2023/10/25 12:09:38;;;;;;;1.80;1.50;;;18.90;67.20;;;;;;5064125;28;20269;-55
2023/10/25 12:12:04;;;;;;;3.67;1.73;;;18.80;67.60;;;;;;5064349;28;20270;-53
2023/10/25 12:14:30;;;;;;;7.40;2.27;;;18.60;66.90;;;;;;5066159;28;20481;-49
2023/10/25 12:16:55;;;;;;;11.00;2.20;;;18.80;67.60;;;;;;5062157;28;20937;-54
2023/10/25 12:19:21;;;;;;;9.83;3.00;;;18.90;66.90;;;;;;5056252;28;20963;-50
2023/10/25 12:21:47;;;;;;;32.07;5.43;;;18.80;65.60;;;;;;5064050;28;20234;-49
2023/10/25 12:24:13;;;;;;;11.00;2.63;;;18.90;66.60;;;;;;5065989;28;20189;-48
2023/10/25 12:26:39;;;;;;;11.03;3.00;;;19.10;63.90;;;;;;5067703;28;20940;-53
2023/10/25 12:29:04;;;;;;;36.37;5.67;;;19.00;62.60;;;;;;5063140;28;20462;-49
2023/10/25 12:31:30;;;;;;;8.10;2.30;;;19.00;62.50;;;;;;5062820;28;20192;-52
2023/10/25 12:33:55;;;;;;;1.40;1.20;;;19.00;61.70;;;;;;5061604;28;20196;-53
2023/10/25 12:36:21;;;;;;;18.60;3.60;;;19.00;60.80;;;;;;5068370;28;20180;-50
2023/10/25 12:38:46;;;;;;;6.20;1.40;;;18.90;61.20;;;;;;5069674;28;20208;-49
2023/10/25 12:41:12;;;;;;;12.37;2.23;;;18.90;61.60;;;;;;5069368;28;20274;-53
2023/10/25 12:43:37;;;;;;;3.13;1.57;;;18.90;61.40;;;;;;5069217;28;20302;-52